Terminal Aerodrome Forecast
Issued by NWS Topeka, KS

Home | Current Version | Previous Version | Text Only | Print | Product List | Glossary On
Versions: 1 2 3 4 5 6 7 8 9 10 11 12 13
898
FTUS43 KTOP 201722
TAFTOP
TAF
KTOP 201722Z 2018/2118 13012G19KT P6SM SCT250
     FM210000 11008KT P6SM SCT100 BKN250
     FM211300 09008KT 6SM -RA OVC022=

USA.gov is the U.S. government's official web portal to all federal, state and local government web resources and services.